Time;durP1;ratioP1;P1;durP2;ratioP2;P2;SDS_P1;SDS_P2;PMS_P1;PMS_P2;Temp;Humidity;BMP_temperature;BMP_pressure;BME280_temperature;BME280_humidity;BME280_pressure;Samples;Min_cycle;Max_cycle;Signal;HPM_P1;HPM_P2
2022/12/24 00:00:15;;;;;;;1.85;1.63;;;;;;;;;;5120516;28;20199;-65
2022/12/24 00:02:42;;;;;;;2.15;1.70;;;;;;;;;;5120665;28;20301;-65
2022/12/24 00:05:11;;;;;;;1.75;1.60;;;;;;;;;;5120858;28;20203;-65
2022/12/24 00:07:38;;;;;;;2.08;1.88;;;;;;;;;;5120379;28;20203;-65
2022/12/24 00:10:09;;;;;;;1.70;1.50;;;;;;;;;;5120332;28;20213;-65
2022/12/24 00:12:36;;;;;;;3.28;1.70;;;;;;;;;;5120065;28;20242;-65
2022/12/24 00:15:04;;;;;;;2.00;1.80;;;;;;;;;;5119977;28;20458;-65
2022/12/24 00:17:32;;;;;;;1.73;1.63;;;;;;;;;;5120264;28;20213;-65
2022/12/24 00:20:00;;;;;;;1.75;1.65;;;;;;;;;;5120343;28;20202;-65
2022/12/24 00:22:27;;;;;;;1.70;1.60;;;;;;;;;;5120315;28;20249;-64
2022/12/24 00:24:55;;;;;;;1.83;1.70;;;;;;;;;;5120535;28;20518;-65
2022/12/24 00:27:24;;;;;;;1.63;1.50;;;;;;;;;;5120207;28;20697;-64
2022/12/24 00:29:52;;;;;;;1.90;1.55;;;;;;;;;;5119851;28;20217;-64
2022/12/24 00:32:20;;;;;;;1.98;1.50;;;;;;;;;;5120142;28;20223;-65
2022/12/24 00:34:48;;;;;;;2.15;1.52;;;;;;;;;;5120003;28;20238;-65
2022/12/24 00:37:15;;;;;;;1.67;1.45;;;;;;;;;;5120087;28;20203;-65
2022/12/24 00:39:43;;;;;;;1.55;1.40;;;;;;;;;;5120015;28;20211;-65
2022/12/24 00:42:11;;;;;;;1.77;1.50;;;;;;;;;;5120159;28;20253;-65
2022/12/24 00:44:40;;;;;;;1.65;1.55;;;;;;;;;;5119584;28;20265;-65
2022/12/24 00:47:08;;;;;;;1.60;1.40;;;;;;;;;;5119498;28;20202;-65
2022/12/24 00:49:35;;;;;;;1.55;1.40;;;;;;;;;;5119158;28;20202;-65
2022/12/24 00:52:03;;;;;;;1.90;1.30;;;;;;;;;;5119040;28;20223;-65
2022/12/24 00:54:32;;;;;;;1.40;1.27;;;;;;;;;;5120110;28;20203;-65
2022/12/24 00:56:59;;;;;;;1.35;1.20;;;;;;;;;;5119689;28;20547;-65
2022/12/24 00:59:27;;;;;;;1.55;1.30;;;;;;;;;;5119334;28;20583;-65
2022/12/24 01:01:56;;;;;;;1.52;1.33;;;;;;;;;;5119076;28;20198;-65
2022/12/24 01:07:09;;;;;;;1.20;1.10;;;;;;;;;;5117888;28;20202;-65
2022/12/24 01:09:37;;;;;;;1.02;0.98;;;;;;;;;;5119615;28;20207;-65
2022/12/24 01:12:05;;;;;;;1.48;1.15;;;;;;;;;;5119542;28;20229;-65
2022/12/24 01:14:33;;;;;;;1.48;1.15;;;;;;;;;;5118995;28;20217;-65
2022/12/24 01:17:02;;;;;;;1.10;1.00;;;;;;;;;;5119143;28;20202;-65
2022/12/24 01:19:30;;;;;;;1.20;1.00;;;;;;;;;;5118981;28;20234;-65
2022/12/24 01:21:59;;;;;;;1.15;1.05;;;;;;;;;;5118199;28;20235;-65
2022/12/24 01:24:27;;;;;;;1.40;1.13;;;;;;;;;;5118313;28;20210;-65
2022/12/24 01:26:54;;;;;;;0.82;0.82;;;;;;;;;;5117851;28;20669;-65
2022/12/24 01:29:22;;;;;;;1.30;1.20;;;;;;;;;;5118204;28;20210;-65
2022/12/24 01:31:50;;;;;;;1.15;1.02;;;;;;;;;;5118295;28;20353;-64
2022/12/24 01:34:19;;;;;;;1.17;1.08;;;;;;;;;;5118984;28;20751;-65
2022/12/24 01:36:47;;;;;;;1.17;1.00;;;;;;;;;;5118902;28;20267;-65
2022/12/24 01:39:15;;;;;;;0.80;0.80;;;;;;;;;;5118735;28;20481;-65
2022/12/24 01:44:30;;;;;;;1.10;0.85;;;;;;;;;;5117917;28;20229;-65
2022/12/24 01:47:08;;;;;;;0.90;0.90;;;;;;;;;;5118051;28;20291;-65
2022/12/24 01:49:38;;;;;;;1.20;1.05;;;;;;;;;;5118715;28;20202;-64
2022/12/24 01:52:07;;;;;;;1.10;0.88;;;;;;;;;;5119148;28;20241;-65
2022/12/24 01:54:37;;;;;;;1.00;0.90;;;;;;;;;;5118256;28;20207;-65
2022/12/24 01:57:08;;;;;;;1.30;1.00;;;;;;;;;;5118808;28;20217;-65
2022/12/24 01:59:36;;;;;;;1.10;1.00;;;;;;;;;;5118608;28;20228;-65
2022/12/24 02:02:05;;;;;;;0.80;0.80;;;;;;;;;;5118807;28;20199;-65
2022/12/24 02:04:37;;;;;;;1.50;0.90;;;;;;;;;;5118697;28;20203;-65
2022/12/24 02:07:06;;;;;;;1.13;0.90;;;;;;;;;;5118471;28;20203;-64
2022/12/24 02:09:34;;;;;;;0.93;0.82;;;;;;;;;;5118411;28;20263;-65
2022/12/24 02:12:02;;;;;;;0.85;0.75;;;;;;;;;;5118365;28;20226;-65
2022/12/24 02:14:32;;;;;;;0.70;0.70;;;;;;;;;;5118282;28;20247;-65
2022/12/24 02:17:02;;;;;;;0.95;0.75;;;;;;;;;;5118138;28;20237;-65
2022/12/24 02:19:48;;;;;;;0.80;0.80;;;;;;;;;;5117242;28;20613;-65
2022/12/24 02:22:19;;;;;;;0.93;0.80;;;;;;;;;;5117642;28;20198;-65
2022/12/24 02:25:12;;;;;;;1.17;0.70;;;;;;;;;;5117922;28;20294;-65
2022/12/24 02:27:46;;;;;;;1.02;0.75;;;;;;;;;;5118044;28;20203;-65
2022/12/24 02:30:17;;;;;;;1.17;0.88;;;;;;;;;;5117991;28;20399;-65
2022/12/24 02:32:49;;;;;;;0.80;0.70;;;;;;;;;;5117830;28;20234;-65
2022/12/24 02:35:20;;;;;;;0.60;0.60;;;;;;;;;;5117720;28;20214;-65
2022/12/24 02:37:50;;;;;;;0.70;0.50;;;;;;;;;;5117872;28;20206;-65
2022/12/24 02:40:19;;;;;;;0.82;0.60;;;;;;;;;;5117775;28;20225;-65
2022/12/24 02:42:49;;;;;;;0.60;0.50;;;;;;;;;;5117122;28;20239;-65
2022/12/24 02:45:21;;;;;;;1.10;0.73;;;;;;;;;;5117789;28;20211;-65
2022/12/24 02:47:50;;;;;;;0.75;0.70;;;;;;;;;;5117728;28;20213;-65
2022/12/24 02:50:18;;;;;;;0.80;0.70;;;;;;;;;;5117245;28;20568;-65
2022/12/24 02:52:47;;;;;;;0.88;0.73;;;;;;;;;;5117192;28;20226;-65
2022/12/24 02:55:17;;;;;;;1.05;0.73;;;;;;;;;;5117656;28;20213;-65
2022/12/24 02:57:56;;;;;;;1.10;0.73;;;;;;;;;;5117363;28;20206;-65
2022/12/24 03:00:25;;;;;;;0.77;0.70;;;;;;;;;;5117447;28;20556;-65
2022/12/24 03:03:00;;;;;;;0.70;0.60;;;;;;;;;;5117493;28;20225;-65
2022/12/24 03:05:31;;;;;;;0.93;0.60;;;;;;;;;;5117369;28;20210;-65
2022/12/24 03:08:02;;;;;;;0.47;0.40;;;;;;;;;;5117244;28;20211;-65
2022/12/24 03:10:33;;;;;;;0.90;0.55;;;;;;;;;;5117691;28;20203;-65
2022/12/24 03:13:03;;;;;;;0.73;0.60;;;;;;;;;;5117737;28;20277;-65
2022/12/24 03:15:33;;;;;;;0.60;0.60;;;;;;;;;;5117589;28;20213;-65
2022/12/24 03:18:02;;;;;;;1.10;0.70;;;;;;;;;;5117479;28;20202;-65
2022/12/24 03:20:32;;;;;;;0.52;0.50;;;;;;;;;;5117388;28;20503;-65
2022/12/24 03:23:00;;;;;;;1.30;0.80;;;;;;;;;;5117605;28;20479;-65
2022/12/24 03:25:28;;;;;;;0.95;0.77;;;;;;;;;;5117241;28;20613;-65
2022/12/24 03:27:56;;;;;;;0.90;0.80;;;;;;;;;;5117335;28;20211;-65
2022/12/24 03:30:24;;;;;;;0.85;0.65;;;;;;;;;;5118206;28;20228;-65
2022/12/24 03:32:53;;;;;;;0.80;0.52;;;;;;;;;;5120859;28;20222;-65
2022/12/24 03:35:21;;;;;;;1.00;0.70;;;;;;;;;;5121363;28;20194;-65
2022/12/24 03:37:49;;;;;;;0.70;0.50;;;;;;;;;;5121387;28;20229;-65
2022/12/24 03:40:17;;;;;;;1.13;0.70;;;;;;;;;;5121660;28;20298;-65
2022/12/24 03:42:45;;;;;;;0.60;0.60;;;;;;;;;;5121531;28;20247;-65
2022/12/24 03:45:13;;;;;;;1.23;0.73;;;;;;;;;;5121085;28;20678;-65
2022/12/24 03:47:40;;;;;;;0.88;0.65;;;;;;;;;;5120842;28;20222;-65
2022/12/24 03:50:10;;;;;;;0.82;0.60;;;;;;;;;;5121223;28;20206;-65
2022/12/24 03:52:38;;;;;;;0.68;0.50;;;;;;;;;;5121292;28;20231;-65
2022/12/24 03:55:06;;;;;;;0.90;0.70;;;;;;;;;;5121315;28;20234;-65
2022/12/24 03:57:34;;;;;;;1.55;0.90;;;;;;;;;;5120726;28;20210;-65
2022/12/24 04:00:03;;;;;;;1.00;0.60;;;;;;;;;;5120782;28;20211;-65
2022/12/24 04:02:32;;;;;;;0.80;0.52;;;;;;;;;;5120548;28;20210;-65
2022/12/24 04:05:00;;;;;;;1.30;0.70;;;;;;;;;;5120482;28;20214;-65
2022/12/24 04:07:29;;;;;;;0.40;0.40;;;;;;;;;;5120540;28;20309;-65
2022/12/24 04:09:57;;;;;;;0.60;0.60;;;;;;;;;;5121020;28;20213;-65
2022/12/24 04:12:24;;;;;;;0.60;0.60;;;;;;;;;;5120691;28;20621;-65
2022/12/24 04:14:52;;;;;;;1.02;0.60;;;;;;;;;;5120726;28;20211;-65
2022/12/24 04:17:20;;;;;;;0.75;0.50;;;;;;;;;;5120699;28;20203;-64
2022/12/24 04:19:48;;;;;;;1.13;0.60;;;;;;;;;;5120485;28;20210;-65
2022/12/24 04:22:15;;;;;;;0.70;0.57;;;;;;;;;;5120874;28;20252;-65
2022/12/24 04:24:44;;;;;;;0.77;0.60;;;;;;;;;;5120662;28;20203;-66
2022/12/24 04:27:14;;;;;;;0.70;0.55;;;;;;;;;;5120501;28;20202;-65
2022/12/24 04:29:42;;;;;;;0.70;0.60;;;;;;;;;;5120647;28;20241;-65
2022/12/24 04:32:10;;;;;;;0.50;0.50;;;;;;;;;;5119395;28;20226;-65
2022/12/24 04:34:38;;;;;;;0.63;0.50;;;;;;;;;;5120501;28;20214;-65
2022/12/24 04:37:05;;;;;;;0.90;0.60;;;;;;;;;;5120288;28;20203;-65
2022/12/24 04:39:33;;;;;;;0.70;0.40;;;;;;;;;;5119995;28;20264;-65
2022/12/24 04:42:02;;;;;;;0.77;0.60;;;;;;;;;;5119599;28;20268;-65
2022/12/24 04:44:30;;;;;;;1.25;0.52;;;;;;;;;;5120307;28;20230;-65
2022/12/24 04:46:58;;;;;;;0.50;0.47;;;;;;;;;;5120039;28;20214;-65
2022/12/24 04:49:26;;;;;;;0.43;0.43;;;;;;;;;;5119897;28;20202;-65
2022/12/24 04:51:53;;;;;;;0.98;0.60;;;;;;;;;;5119645;28;20203;-65
2022/12/24 04:54:21;;;;;;;0.70;0.50;;;;;;;;;;5119162;28;20195;-65
2022/12/24 04:56:49;;;;;;;0.82;0.60;;;;;;;;;;5119423;28;20206;-65
2022/12/24 04:59:18;;;;;;;0.70;0.63;;;;;;;;;;5120023;28;20590;-65
2022/12/24 05:01:45;;;;;;;0.98;0.70;;;;;;;;;;5119156;28;20302;-65
2022/12/24 05:04:13;;;;;;;0.57;0.50;;;;;;;;;;5119357;28;20679;-66
2022/12/24 05:06:40;;;;;;;0.88;0.57;;;;;;;;;;5119319;28;20306;-65
2022/12/24 05:09:08;;;;;;;0.50;0.50;;;;;;;;;;5119651;28;20206;-65
2022/12/24 05:11:35;;;;;;;1.17;0.70;;;;;;;;;;5119466;28;20298;-65
2022/12/24 05:14:03;;;;;;;0.60;0.60;;;;;;;;;;5119361;28;20809;-65
2022/12/24 05:16:31;;;;;;;0.73;0.50;;;;;;;;;;5119255;28;20213;-65
2022/12/24 05:18:59;;;;;;;0.52;0.50;;;;;;;;;;5119597;28;20242;-65
2022/12/24 05:21:26;;;;;;;0.93;0.60;;;;;;;;;;5119684;28;20586;-65
2022/12/24 05:26:41;;;;;;;0.75;0.50;;;;;;;;;;5119502;28;20264;-65
2022/12/24 05:29:10;;;;;;;0.68;0.40;;;;;;;;;;5119254;28;20294;-65
2022/12/24 05:31:40;;;;;;;0.93;0.50;;;;;;;;;;5119285;28;20484;-65
2022/12/24 05:34:07;;;;;;;0.82;0.50;;;;;;;;;;5119719;28;20609;-65
2022/12/24 05:36:35;;;;;;;0.70;0.60;;;;;;;;;;5119270;28;20297;-65
2022/12/24 05:39:02;;;;;;;1.33;0.60;;;;;;;;;;5119202;28;20286;-65
2022/12/24 05:41:30;;;;;;;0.50;0.50;;;;;;;;;;5118843;28;20299;-65
2022/12/24 05:43:57;;;;;;;0.73;0.40;;;;;;;;;;5118292;28;20245;-65
2022/12/24 05:46:25;;;;;;;0.70;0.50;;;;;;;;;;5118689;28;20209;-65
2022/12/24 05:48:54;;;;;;;0.70;0.50;;;;;;;;;;5118651;28;20293;-65
2022/12/24 05:51:22;;;;;;;0.95;0.60;;;;;;;;;;5118369;28;20203;-65
2022/12/24 05:53:50;;;;;;;1.02;0.50;;;;;;;;;;5117796;28;20512;-65
2022/12/24 05:56:19;;;;;;;1.38;0.60;;;;;;;;;;5118570;28;20293;-65
2022/12/24 05:58:47;;;;;;;0.50;0.50;;;;;;;;;;5118577;28;20539;-65
2022/12/24 06:01:15;;;;;;;0.82;0.40;;;;;;;;;;5118660;28;20297;-65
2022/12/24 06:03:42;;;;;;;0.65;0.60;;;;;;;;;;5118427;28;20199;-65
2022/12/24 06:06:12;;;;;;;0.93;0.40;;;;;;;;;;5117897;28;20207;-65
2022/12/24 06:08:40;;;;;;;1.13;0.60;;;;;;;;;;5118222;28;20203;-65
2022/12/24 06:11:09;;;;;;;0.95;0.50;;;;;;;;;;5118040;28;20285;-65
2022/12/24 06:13:37;;;;;;;0.57;0.50;;;;;;;;;;5118118;28;20237;-65
2022/12/24 06:16:06;;;;;;;0.82;0.57;;;;;;;;;;5118508;28;20307;-65
2022/12/24 06:18:34;;;;;;;1.35;0.80;;;;;;;;;;5118209;28;20294;-65
2022/12/24 06:21:01;;;;;;;1.38;0.50;;;;;;;;;;5118374;28;20298;-65
2022/12/24 06:23:31;;;;;;;0.85;0.60;;;;;;;;;;5118171;28;20206;-65
2022/12/24 06:26:00;;;;;;;0.82;0.55;;;;;;;;;;5118020;28;20306;-65
2022/12/24 06:28:28;;;;;;;1.15;0.70;;;;;;;;;;5118070;28;20244;-65
2022/12/24 06:30:55;;;;;;;0.65;0.50;;;;;;;;;;5117870;28;20302;-65
2022/12/24 06:33:22;;;;;;;1.33;0.60;;;;;;;;;;5117997;28;20313;-65
2022/12/24 06:35:50;;;;;;;0.80;0.50;;;;;;;;;;5117933;28;20420;-65
2022/12/24 06:38:17;;;;;;;0.75;0.60;;;;;;;;;;5117479;28;20206;-65
2022/12/24 06:40:47;;;;;;;1.13;0.65;;;;;;;;;;5117281;28;20225;-65
2022/12/24 06:43:15;;;;;;;1.00;0.70;;;;;;;;;;5117756;28;20303;-65
2022/12/24 06:45:45;;;;;;;1.08;0.52;;;;;;;;;;5117271;28;20293;-65
2022/12/24 06:48:13;;;;;;;0.40;0.40;;;;;;;;;;5117170;28;20656;-65
2022/12/24 06:50:40;;;;;;;0.90;0.70;;;;;;;;;;5116493;28;20431;-65
2022/12/24 06:53:08;;;;;;;0.85;0.80;;;;;;;;;;5116050;28;20227;-65
2022/12/24 06:55:35;;;;;;;0.60;0.52;;;;;;;;;;5117587;28;20289;-64
2022/12/24 06:58:04;;;;;;;0.40;0.40;;;;;;;;;;5117245;28;20229;-65
2022/12/24 07:00:32;;;;;;;1.15;0.70;;;;;;;;;;5116011;28;20645;-65
2022/12/24 07:02:59;;;;;;;1.08;0.70;;;;;;;;;;5117230;28;20238;-65
2022/12/24 07:05:27;;;;;;;0.95;0.60;;;;;;;;;;5116392;28;20202;-65
2022/12/24 07:07:55;;;;;;;1.08;0.75;;;;;;;;;;5117025;28;20242;-65
2022/12/24 07:10:22;;;;;;;0.90;0.60;;;;;;;;;;5116854;28;20285;-65
2022/12/24 07:12:50;;;;;;;1.02;0.73;;;;;;;;;;5116891;28;20223;-65
2022/12/24 07:15:19;;;;;;;0.90;0.60;;;;;;;;;;5117050;28;20206;-65
2022/12/24 07:17:46;;;;;;;0.80;0.60;;;;;;;;;;5116741;28;20229;-65
2022/12/24 07:20:14;;;;;;;1.05;0.60;;;;;;;;;;5106033;28;20230;-65
2022/12/24 07:22:42;;;;;;;0.70;0.50;;;;;;;;;;5085929;28;20243;-65
2022/12/24 07:25:10;;;;;;;0.70;0.43;;;;;;;;;;5083782;28;20319;-65
2022/12/24 07:27:38;;;;;;;1.02;0.60;;;;;;;;;;5077222;28;20294;-65
2022/12/24 07:30:06;;;;;;;1.00;0.60;;;;;;;;;;5076776;28;20206;-65
2022/12/24 07:32:35;;;;;;;1.00;0.63;;;;;;;;;;5076640;28;20208;-65
2022/12/24 07:35:02;;;;;;;0.82;0.50;;;;;;;;;;5076551;28;20207;-65
2022/12/24 07:37:30;;;;;;;1.05;0.65;;;;;;;;;;5076798;28;20207;-65
2022/12/24 07:39:57;;;;;;;0.70;0.60;;;;;;;;;;5076729;28;20303;-65
2022/12/24 07:42:25;;;;;;;1.05;0.50;;;;;;;;;;5076225;28;20273;-65
2022/12/24 07:44:52;;;;;;;0.82;0.60;;;;;;;;;;5087707;28;20196;-65
2022/12/24 07:47:20;;;;;;;0.55;0.50;;;;;;;;;;5096367;28;20214;-65
2022/12/24 07:49:49;;;;;;;0.93;0.63;;;;;;;;;;5096188;28;20618;-65
2022/12/24 07:52:17;;;;;;;0.90;0.50;;;;;;;;;;5095761;28;20204;-65
2022/12/24 07:54:44;;;;;;;1.33;0.63;;;;;;;;;;5095454;28;20637;-65
2022/12/24 07:57:11;;;;;;;1.50;0.50;;;;;;;;;;5096170;28;20456;-65
2022/12/24 07:59:39;;;;;;;0.98;0.50;;;;;;;;;;5095623;28;20268;-65
2022/12/24 08:02:06;;;;;;;0.82;0.75;;;;;;;;;;5096171;28;20286;-65
2022/12/24 08:04:35;;;;;;;1.73;0.60;;;;;;;;;;5096316;28;20200;-65
2022/12/24 08:07:04;;;;;;;1.40;0.50;;;;;;;;;;5095463;28;20203;-65
2022/12/24 08:09:32;;;;;;;1.05;0.60;;;;;;;;;;5095820;28;20286;-65
2022/12/24 08:12:01;;;;;;;1.35;0.77;;;;;;;;;;5094804;28;20561;-65
2022/12/24 08:14:28;;;;;;;1.13;0.60;;;;;;;;;;5096010;28;20228;-65
2022/12/24 08:16:56;;;;;;;0.93;0.60;;;;;;;;;;5096617;28;20511;-65
2022/12/24 08:19:23;;;;;;;0.90;0.60;;;;;;;;;;5099306;28;20298;-65
2022/12/24 08:21:51;;;;;;;1.23;0.60;;;;;;;;;;5099798;28;20224;-65
2022/12/24 08:24:20;;;;;;;0.88;0.70;;;;;;;;;;5099359;28;20226;-66
2022/12/24 08:26:47;;;;;;;0.93;0.70;;;;;;;;;;5098751;28;20310;-65
2022/12/24 08:29:15;;;;;;;1.38;0.73;;;;;;;;;;5098227;28;20203;-65
2022/12/24 08:31:42;;;;;;;0.93;0.70;;;;;;;;;;5098729;28;20334;-65
2022/12/24 08:34:11;;;;;;;1.05;0.43;;;;;;;;;;5097869;28;20301;-65
2022/12/24 08:36:38;;;;;;;0.90;0.60;;;;;;;;;;5098416;28;20203;-65
2022/12/24 08:39:07;;;;;;;0.90;0.60;;;;;;;;;;5099043;28;20222;-65
2022/12/24 08:41:36;;;;;;;1.05;0.60;;;;;;;;;;5098720;28;20298;-65
2022/12/24 08:44:04;;;;;;;1.42;0.60;;;;;;;;;;5097054;28;20322;-65
2022/12/24 08:46:31;;;;;;;1.52;0.80;;;;;;;;;;5097909;28;20290;-65
2022/12/24 08:48:59;;;;;;;1.30;0.60;;;;;;;;;;5096904;28;20204;-65
2022/12/24 08:51:26;;;;;;;2.25;0.70;;;;;;;;;;5097106;28;20203;-65
2022/12/24 08:53:54;;;;;;;1.40;0.63;;;;;;;;;;5097382;28;20314;-64
2022/12/24 08:56:21;;;;;;;1.52;0.65;;;;;;;;;;5097819;28;20290;-65
2022/12/24 08:58:50;;;;;;;1.17;0.60;;;;;;;;;;5097510;28;20203;-65
2022/12/24 09:01:19;;;;;;;0.57;0.50;;;;;;;;;;5096829;28;20195;-65
2022/12/24 09:03:46;;;;;;;1.13;0.80;;;;;;;;;;5096888;28;20199;-65
2022/12/24 09:06:14;;;;;;;1.40;0.70;;;;;;;;;;5097672;28;20196;-65
2022/12/24 09:08:42;;;;;;;0.80;0.60;;;;;;;;;;5097298;28;20223;-65
2022/12/24 09:11:10;;;;;;;0.95;0.60;;;;;;;;;;5096761;28;20207;-65
2022/12/24 09:13:38;;;;;;;0.85;0.60;;;;;;;;;;5096931;28;20224;-65
2022/12/24 09:16:07;;;;;;;1.20;0.70;;;;;;;;;;5095593;28;20565;-64
2022/12/24 09:18:35;;;;;;;2.88;1.00;;;;;;;;;;5096816;28;20218;-64
2022/12/24 09:21:04;;;;;;;0.80;0.47;;;;;;;;;;5096430;28;20214;-65
2022/12/24 09:23:32;;;;;;;2.08;0.60;;;;;;;;;;5096444;28;20290;-65
2022/12/24 09:26:00;;;;;;;1.10;0.80;;;;;;;;;;5096683;28;20610;-65
2022/12/24 09:28:27;;;;;;;0.70;0.60;;;;;;;;;;5096105;28;20309;-64
2022/12/24 09:30:58;;;;;;;0.70;0.60;;;;;;;;;;5096360;28;20298;-65
2022/12/24 09:33:27;;;;;;;0.50;0.50;;;;;;;;;;5095971;28;20609;-65
2022/12/24 09:35:54;;;;;;;0.50;0.50;;;;;;;;;;5095275;28;20449;-65
2022/12/24 09:38:22;;;;;;;0.80;0.57;;;;;;;;;;5095815;28;20204;-64
2022/12/24 09:40:50;;;;;;;0.77;0.52;;;;;;;;;;5094639;28;20348;-65
2022/12/24 09:43:18;;;;;;;0.70;0.50;;;;;;;;;;5095140;28;20331;-65
2022/12/24 09:45:50;;;;;;;1.45;0.55;;;;;;;;;;5095861;28;20415;-65
2022/12/24 09:48:18;;;;;;;0.80;0.60;;;;;;;;;;5095094;28;20204;-65
2022/12/24 09:50:51;;;;;;;0.98;0.70;;;;;;;;;;5096484;28;20610;-65
2022/12/24 09:53:20;;;;;;;0.60;0.57;;;;;;;;;;5095204;28;20214;-64
2022/12/24 09:55:49;;;;;;;1.17;0.60;;;;;;;;;;5095755;28;20195;-65
2022/12/24 09:58:20;;;;;;;0.95;0.63;;;;;;;;;;5095819;28;20298;-65
2022/12/24 10:00:48;;;;;;;0.65;0.50;;;;;;;;;;5095001;28;20613;-65
2022/12/24 10:03:16;;;;;;;2.72;0.80;;;;;;;;;;5094995;28;20583;-65
2022/12/24 10:05:45;;;;;;;1.77;0.50;;;;;;;;;;5094695;28;20265;-65
2022/12/24 10:08:24;;;;;;;0.60;0.50;;;;;;;;;;5093388;28;20203;-65
2022/12/24 10:10:52;;;;;;;1.15;0.50;;;;;;;;;;5094524;28;20218;-65
2022/12/24 10:13:24;;;;;;;1.33;0.60;;;;;;;;;;5095016;28;20237;-65
2022/12/24 10:15:55;;;;;;;0.90;0.70;;;;;;;;;;5094373;28;20337;-65
2022/12/24 10:18:28;;;;;;;1.40;0.80;;;;;;;;;;5094886;28;20206;-65
2022/12/24 10:20:59;;;;;;;1.88;0.85;;;;;;;;;;5094877;28;20298;-65
2022/12/24 10:23:31;;;;;;;0.80;0.70;;;;;;;;;;5095601;28;20234;-65
2022/12/24 10:26:05;;;;;;;1.02;0.63;;;;;;;;;;5095510;28;20557;-65
2022/12/24 10:28:35;;;;;;;0.77;0.50;;;;;;;;;;5096059;28;20210;-65
2022/12/24 10:31:04;;;;;;;2.13;0.60;;;;;;;;;;5095065;28;20580;-65
2022/12/24 10:33:33;;;;;;;1.65;0.70;;;;;;;;;;5094231;28;20208;-64
2022/12/24 10:36:01;;;;;;;1.00;0.60;;;;;;;;;;5094180;28;20576;-65
2022/12/24 10:38:31;;;;;;;1.63;0.63;;;;;;;;;;5094620;28;20298;-65
2022/12/24 10:41:00;;;;;;;2.47;0.52;;;;;;;;;;5094371;28;20226;-64
2022/12/24 10:43:30;;;;;;;1.70;0.77;;;;;;;;;;5095256;28;20240;-65
2022/12/24 10:45:59;;;;;;;1.65;0.80;;;;;;;;;;5096051;28;20200;-65
2022/12/24 10:48:28;;;;;;;2.88;1.05;;;;;;;;;;5096219;28;20302;-65
2022/12/24 10:50:59;;;;;;;1.63;1.00;;;;;;;;;;5096291;28;20516;-65
2022/12/24 10:53:32;;;;;;;1.65;0.80;;;;;;;;;;5095123;28;20211;-65
2022/12/24 10:56:05;;;;;;;1.20;0.80;;;;;;;;;;5095767;28;20222;-65
2022/12/24 10:58:33;;;;;;;2.28;0.98;;;;;;;;;;5095506;28;20209;-65
2022/12/24 11:01:01;;;;;;;1.77;0.90;;;;;;;;;;5095078;28;20199;-65
2022/12/24 11:03:32;;;;;;;1.90;0.90;;;;;;;;;;5095010;28;20613;-65
2022/12/24 11:06:11;;;;;;;1.67;0.88;;;;;;;;;;5094928;28;20235;-65
2022/12/24 11:08:39;;;;;;;1.20;0.80;;;;;;;;;;5095072;28;20242;-65
2022/12/24 11:11:10;;;;;;;3.42;1.00;;;;;;;;;;5095118;28;20200;-65
2022/12/24 11:13:38;;;;;;;1.50;0.75;;;;;;;;;;5095554;28;20210;-64
2022/12/24 11:16:07;;;;;;;1.65;0.93;;;;;;;;;;5095501;28;20294;-65
2022/12/24 11:18:36;;;;;;;2.25;0.75;;;;;;;;;;5094567;28;20294;-65
2022/12/24 11:21:04;;;;;;;4.00;0.80;;;;;;;;;;5095049;28;20800;-65
2022/12/24 11:23:32;;;;;;;1.30;0.88;;;;;;;;;;5095421;28;20290;-65
2022/12/24 11:25:59;;;;;;;3.47;0.93;;;;;;;;;;5095246;28;20246;-65
2022/12/24 11:28:30;;;;;;;1.67;1.13;;;;;;;;;;5095529;28;20290;-65
2022/12/24 11:30:59;;;;;;;2.00;1.20;;;;;;;;;;5094808;28;20203;-64
2022/12/24 11:33:27;;;;;;;1.27;0.98;;;;;;;;;;5094609;28;20203;-64
2022/12/24 11:35:57;;;;;;;1.77;1.10;;;;;;;;;;5094575;28;20226;-65
2022/12/24 11:38:26;;;;;;;1.55;1.10;;;;;;;;;;5094352;28;20298;-65
2022/12/24 11:40:59;;;;;;;2.13;1.30;;;;;;;;;;5094601;28;20204;-65
2022/12/24 11:43:43;;;;;;;2.00;1.20;;;;;;;;;;5093857;28;20326;-65
2022/12/24 11:46:22;;;;;;;2.70;1.23;;;;;;;;;;5094839;28;20215;-65
2022/12/24 11:48:50;;;;;;;3.38;1.10;;;;;;;;;;5095359;28;20204;-65
2022/12/24 11:51:24;;;;;;;3.00;1.17;;;;;;;;;;5095405;28;20239;-65
2022/12/24 11:53:59;;;;;;;1.10;0.80;;;;;;;;;;5098960;28;20233;-65
2022/12/24 11:56:30;;;;;;;2.45;1.00;;;;;;;;;;5098323;28;20210;-65
2022/12/24 11:58:59;;;;;;;1.73;1.10;;;;;;;;;;5098669;28;20216;-65
2022/12/24 12:01:30;;;;;;;1.95;1.05;;;;;;;;;;5097673;28;20200;-64
2022/12/24 12:04:00;;;;;;;2.20;1.17;;;;;;;;;;5098722;28;20204;-65
2022/12/24 12:06:29;;;;;;;1.85;1.17;;;;;;;;;;5098739;28;20210;-65
2022/12/24 12:08:58;;;;;;;2.20;1.60;;;;;;;;;;5099545;28;20495;-65
2022/12/24 12:11:26;;;;;;;3.05;1.60;;;;;;;;;;5097887;28;20203;-64
2022/12/24 12:13:54;;;;;;;3.35;1.30;;;;;;;;;;5099229;28;20204;-65
2022/12/24 12:16:24;;;;;;;2.78;1.50;;;;;;;;;;5098550;28;20302;-65
2022/12/24 12:18:57;;;;;;;2.90;1.35;;;;;;;;;;5097720;28;20234;-65
2022/12/24 12:21:27;;;;;;;3.47;1.50;;;;;;;;;;5097800;28;20204;-65
2022/12/24 12:23:58;;;;;;;1.50;1.40;;;;;;;;;;5097634;28;20204;-65
2022/12/24 12:26:27;;;;;;;1.95;1.23;;;;;;;;;;5097670;28;20203;-65
2022/12/24 12:28:56;;;;;;;2.13;1.25;;;;;;;;;;5097806;28;20200;-65
2022/12/24 12:31:26;;;;;;;2.65;1.50;;;;;;;;;;5098470;28;20257;-65
2022/12/24 12:33:58;;;;;;;2.50;1.50;;;;;;;;;;5097892;28;20783;-65
2022/12/24 12:36:27;;;;;;;1.98;1.40;;;;;;;;;;5098223;28;20284;-65
2022/12/24 12:38:55;;;;;;;1.70;1.40;;;;;;;;;;5098281;28;20565;-65
2022/12/24 12:41:31;;;;;;;2.53;1.50;;;;;;;;;;5099068;28;20318;-65
2022/12/24 12:44:08;;;;;;;2.85;1.38;;;;;;;;;;5098458;28;20227;-65
2022/12/24 12:46:42;;;;;;;1.50;1.10;;;;;;;;;;5098054;28;20290;-65
2022/12/24 12:49:16;;;;;;;1.73;1.27;;;;;;;;;;5095607;28;20290;-65
2022/12/24 12:51:46;;;;;;;2.40;1.10;;;;;;;;;;5096234;28;20302;-65
2022/12/24 12:54:29;;;;;;;2.53;1.25;;;;;;;;;;5097125;28;20216;-64
2022/12/24 12:56:59;;;;;;;1.20;1.00;;;;;;;;;;5097306;28;20210;-65
2022/12/24 12:59:29;;;;;;;1.70;1.02;;;;;;;;;;5097374;28;20606;-65
2022/12/24 13:02:01;;;;;;;1.30;1.00;;;;;;;;;;5095394;28;20207;-65
2022/12/24 13:04:47;;;;;;;2.00;1.10;;;;;;;;;;5097352;28;20508;-65
2022/12/24 13:07:33;;;;;;;1.75;1.10;;;;;;;;;;5097097;28;20565;-65
2022/12/24 13:10:15;;;;;;;1.75;1.00;;;;;;;;;;5097360;28;20294;-65
2022/12/24 13:12:51;;;;;;;2.47;1.10;;;;;;;;;;5076662;28;20207;-65
2022/12/24 13:15:37;;;;;;;1.80;1.05;;;;;;;;;;5095701;28;20222;-65
2022/12/24 13:18:22;;;;;;;1.10;1.00;;;;;;;;;;5094397;28;20246;-65
2022/12/24 13:20:50;;;;;;;1.25;1.00;;;;;;;;;;5095073;28;20556;-65
2022/12/24 13:23:19;;;;;;;1.23;0.90;;;;;;;;;;5095137;28;20206;-65
2022/12/24 13:25:48;;;;;;;1.52;0.95;;;;;;;;;;5095604;28;20253;-65
2022/12/24 13:28:33;;;;;;;2.38;1.00;;;;;;;;;;5095959;28;20324;-65
2022/12/24 13:31:18;;;;;;;1.15;0.98;;;;;;;;;;5095772;28;20203;-65
2022/12/24 13:33:49;;;;;;;1.00;0.85;;;;;;;;;;5096873;28;20200;-65
2022/12/24 13:36:17;;;;;;;1.13;0.90;;;;;;;;;;5095635;28;20697;-65
2022/12/24 13:38:45;;;;;;;1.65;1.00;;;;;;;;;;5095323;28;20246;-66
2022/12/24 13:41:31;;;;;;;1.23;0.75;;;;;;;;;;5096036;28;20239;-65
2022/12/24 13:44:15;;;;;;;1.90;0.80;;;;;;;;;;5095994;28;20337;-65
2022/12/24 13:46:55;;;;;;;2.10;1.00;;;;;;;;;;5095421;28;20282;-65
2022/12/24 13:49:27;;;;;;;1.30;1.00;;;;;;;;;;5095410;28;20202;-65
2022/12/24 13:52:05;;;;;;;1.23;0.90;;;;;;;;;;5094313;28;20264;-65
2022/12/24 13:54:34;;;;;;;1.52;0.90;;;;;;;;;;5094888;28;20606;-65
2022/12/24 13:57:02;;;;;;;1.77;0.80;;;;;;;;;;5078267;28;20238;-65
2022/12/24 13:59:35;;;;;;;1.52;1.00;;;;;;;;;;5095198;28;20286;-65
2022/12/24 14:02:03;;;;;;;1.33;0.77;;;;;;;;;;5094386;28;20297;-65
2022/12/24 14:04:34;;;;;;;4.15;0.88;;;;;;;;;;5095124;28;20210;-65
2022/12/24 14:07:03;;;;;;;1.65;0.80;;;;;;;;;;5094838;28;20204;-65
2022/12/24 14:09:31;;;;;;;0.77;0.70;;;;;;;;;;5095854;28;20533;-65
2022/12/24 14:12:16;;;;;;;1.63;0.80;;;;;;;;;;5094740;28;20226;-65
2022/12/24 14:14:45;;;;;;;1.30;0.82;;;;;;;;;;5094968;28;20294;-65
2022/12/24 14:17:15;;;;;;;0.98;0.70;;;;;;;;;;5095778;28;20203;-65
2022/12/24 14:19:44;;;;;;;1.63;1.00;;;;;;;;;;5096767;28;20580;-65
2022/12/24 14:22:20;;;;;;;0.98;0.68;;;;;;;;;;5094345;28;20204;-65
2022/12/24 14:24:51;;;;;;;2.85;0.90;;;;;;;;;;5094274;28;20482;-65
2022/12/24 14:27:20;;;;;;;2.97;0.77;;;;;;;;;;5095161;28;20292;-65
2022/12/24 14:29:51;;;;;;;1.55;0.75;;;;;;;;;;5074763;28;20596;-65
2022/12/24 14:32:19;;;;;;;1.10;0.60;;;;;;;;;;5073830;28;20212;-65
2022/12/24 14:34:46;;;;;;;0.88;0.70;;;;;;;;;;5074622;28;20663;-65
2022/12/24 14:37:14;;;;;;;1.48;0.98;;;;;;;;;;5073752;28;20200;-65
2022/12/24 14:39:43;;;;;;;0.75;0.68;;;;;;;;;;5074482;28;20716;-65
2022/12/24 14:42:23;;;;;;;1.17;0.70;;;;;;;;;;5074518;28;20203;-65
2022/12/24 14:44:57;;;;;;;1.02;0.60;;;;;;;;;;5074690;28;20196;-65
2022/12/24 14:47:29;;;;;;;1.65;0.70;;;;;;;;;;5074279;28;20239;-65
2022/12/24 14:50:04;;;;;;;2.78;0.75;;;;;;;;;;5074977;28;20682;-66
2022/12/24 14:52:36;;;;;;;1.88;0.90;;;;;;;;;;5073971;28;20311;-65
2022/12/24 14:55:18;;;;;;;1.00;0.55;;;;;;;;;;5074773;28;20204;-65
2022/12/24 14:57:45;;;;;;;1.98;0.70;;;;;;;;;;5073818;28;20196;-65
2022/12/24 15:00:20;;;;;;;1.35;0.80;;;;;;;;;;5074384;28;20346;-65
2022/12/24 15:02:48;;;;;;;1.67;0.60;;;;;;;;;;5074252;28;20496;-65
2022/12/24 15:05:17;;;;;;;3.60;0.93;;;;;;;;;;5074017;28;20207;-65